createdAt,value
2018-11-05T00:01:57.532Z,18.39
2018-11-05T00:04:25.990Z,17.59
2018-11-05T00:06:54.459Z,17.84
2018-11-05T00:09:22.934Z,18.21
2018-11-05T00:11:51.443Z,17.79
2018-11-05T00:14:19.976Z,18.02
2018-11-05T00:16:48.513Z,18.23
2018-11-05T00:19:16.995Z,17.95
2018-11-05T00:21:45.475Z,17.71
2018-11-05T00:24:14.277Z,17.65
2018-11-05T00:26:42.777Z,17.95
2018-11-05T00:29:11.286Z,17.54
2018-11-05T00:31:39.781Z,17.66
2018-11-05T00:34:08.266Z,18.01
2018-11-05T00:36:36.721Z,17.18
2018-11-05T00:39:08.270Z,17.78
2018-11-05T00:41:37.608Z,17.95
2018-11-05T00:44:06.809Z,18.27
2018-11-05T00:46:35.497Z,17.77
2018-11-05T00:49:04.388Z,17.41
2018-11-05T00:51:33.284Z,18.36
2018-11-05T00:54:01.787Z,17.70
2018-11-05T00:56:30.333Z,18.29
2018-11-05T00:58:58.944Z,18.03
2018-11-05T01:01:28.280Z,17.80
2018-11-05T01:03:56.759Z,17.58
2018-11-05T01:06:25.495Z,17.78
2018-11-05T01:08:53.974Z,18.20
2018-11-05T01:11:22.453Z,17.81
2018-11-05T01:13:50.968Z,17.14
2018-11-05T01:16:19.422Z,17.50
2018-11-05T01:18:47.936Z,17.40
2018-11-05T01:21:16.391Z,17.86
2018-11-05T01:23:44.907Z,17.58
2018-11-05T01:26:13.403Z,17.29
2018-11-05T01:28:41.883Z,17.65
2018-11-05T01:31:10.348Z,17.80
2018-11-05T01:33:39.063Z,17.47
2018-11-05T01:36:07.556Z,17.01
2018-11-05T01:38:36.194Z,17.13
2018-11-05T01:41:04.715Z,17.79
2018-11-05T01:43:33.207Z,16.94
2018-11-05T01:46:01.648Z,17.41
2018-11-05T01:48:30.117Z,17.84
2018-11-05T01:50:58.768Z,17.46
2018-11-05T01:53:27.259Z,17.03
2018-11-05T01:55:55.746Z,17.83
2018-11-05T01:58:24.272Z,17.04
2018-11-05T02:00:52.759Z,18.01
2018-11-05T02:03:21.284Z,17.39
2018-11-05T02:05:50.004Z,17.56
2018-11-05T02:08:18.559Z,17.86
2018-11-05T02:10:47.072Z,17.86
2018-11-05T02:13:15.568Z,16.93
2018-11-05T02:15:44.079Z,17.20
2018-11-05T02:18:12.571Z,17.05
2018-11-05T02:20:41.064Z,17.20
2018-11-05T02:23:09.529Z,17.94
2018-11-05T02:25:38.015Z,16.91
2018-11-05T02:28:07.158Z,17.40
2018-11-05T02:30:35.852Z,17.70
2018-11-05T02:33:04.371Z,17.14
2018-11-05T02:35:32.904Z,17.39
2018-11-05T02:38:01.380Z,17.72
2018-11-05T02:40:29.891Z,17.38
2018-11-05T02:42:58.414Z,17.25
2018-11-05T02:45:27.188Z,17.50
2018-11-05T02:47:55.648Z,17.41
2018-11-05T02:50:24.279Z,17.31
2018-11-05T02:52:52.802Z,17.22
2018-11-05T02:55:21.277Z,17.35
2018-11-05T02:57:49.732Z,17.19
2018-11-05T03:00:19.392Z,17.57
2018-11-05T03:02:48.183Z,17.09
2018-11-05T03:05:18.797Z,17.47
2018-11-05T03:07:48.346Z,16.89
2018-11-05T03:10:17.204Z,17.41
2018-11-05T03:12:46.698Z,17.15
2018-11-05T03:15:16.535Z,17.07
2018-11-05T03:17:45.008Z,16.99
2018-11-05T03:20:14.603Z,17.23
2018-11-05T03:22:43.619Z,17.56
2018-11-05T03:25:12.155Z,17.28
2018-11-05T03:27:41.272Z,17.51
2018-11-05T03:30:11.735Z,17.90
2018-11-05T03:32:40.534Z,17.91
2018-11-05T03:35:10.332Z,17.99
2018-11-05T03:37:39.437Z,17.15
2018-11-05T03:40:09.362Z,17.23
2018-11-05T03:42:38.786Z,17.33
2018-11-05T03:45:08.761Z,17.13
2018-11-05T03:47:37.235Z,17.06
2018-11-05T03:50:07.944Z,18.11
2018-11-05T03:52:36.788Z,17.49
2018-11-05T03:55:06.061Z,17.79
2018-11-05T03:57:34.520Z,17.34
2018-11-05T04:00:03.100Z,17.47
2018-11-05T04:02:31.900Z,17.22
2018-11-05T04:05:00.337Z,17.50
2018-11-05T04:07:29.312Z,17.99
2018-11-05T04:09:57.892Z,17.18
2018-11-05T04:15:25.412Z,17.98
2018-11-05T04:17:53.947Z,18.08
2018-11-05T04:20:22.481Z,19.62
2018-11-05T04:22:50.980Z,18.52
2018-11-05T04:25:19.410Z,17.92
2018-11-05T04:27:48.037Z,18.62
2018-11-05T04:30:16.917Z,17.62
2018-11-05T04:32:45.391Z,17.74
2018-11-05T04:35:14.329Z,18.92
2018-11-05T04:37:43.193Z,17.58
2018-11-05T04:40:12.167Z,18.30
2018-11-05T04:42:41.015Z,17.78
2018-11-05T04:45:11.397Z,17.40
2018-11-05T04:47:40.021Z,17.52
2018-11-05T04:50:10.350Z,17.47
2018-11-05T04:52:39.736Z,17.09
2018-11-05T04:55:08.497Z,17.10
2018-11-05T04:57:37.427Z,16.89
2018-11-05T05:00:12.117Z,17.29
2018-11-05T05:02:41.660Z,17.08
2018-11-05T05:05:11.227Z,17.03
2018-11-05T05:07:39.691Z,17.26
2018-11-05T05:10:09.138Z,17.19
2018-11-05T05:12:38.664Z,17.52
2018-11-05T05:15:07.580Z,17.15
2018-11-05T05:17:36.157Z,17.29
2018-11-05T05:20:06.393Z,17.38
2018-11-05T05:22:34.946Z,16.91
2018-11-05T05:25:03.417Z,17.09
2018-11-05T05:27:31.897Z,17.02
2018-11-05T05:30:00.379Z,17.13
2018-11-05T05:32:28.885Z,17.03
2018-11-05T05:34:57.387Z,16.67
2018-11-05T05:37:25.877Z,16.79
2018-11-05T05:39:54.378Z,16.88
2018-11-05T05:42:22.914Z,16.52
2018-11-05T05:44:51.443Z,17.08
2018-11-05T05:47:19.947Z,16.95
2018-11-05T05:49:48.477Z,17.13
2018-11-05T05:52:16.971Z,17.20
2018-11-05T05:54:45.473Z,16.91
2018-11-05T05:57:14.033Z,16.70
2018-11-05T05:59:42.721Z,16.38
2018-11-05T06:02:11.394Z,17.13
2018-11-05T06:04:40.320Z,16.80
2018-11-05T06:07:09.029Z,16.97
2018-11-05T06:09:37.512Z,16.99
2018-11-05T06:12:06.808Z,16.64
2018-11-05T06:14:35.510Z,16.66
2018-11-05T06:17:04.060Z,16.77
2018-11-05T06:19:32.537Z,17.05
2018-11-05T06:22:01.122Z,17.02
2018-11-05T06:24:29.882Z,16.82
2018-11-05T06:26:58.392Z,16.72
2018-11-05T06:29:26.877Z,16.70
2018-11-05T06:31:55.389Z,16.94
2018-11-05T06:34:23.866Z,16.68
2018-11-05T06:36:52.347Z,16.62
2018-11-05T06:39:21.111Z,17.03
2018-11-05T06:41:49.628Z,16.43
2018-11-05T06:44:18.172Z,17.08
2018-11-05T06:46:46.696Z,16.92
2018-11-05T06:49:15.234Z,16.57
2018-11-05T06:51:43.731Z,17.17
2018-11-05T06:54:12.469Z,16.84
2018-11-05T06:56:40.928Z,16.73
2018-11-05T06:59:09.418Z,16.92
2018-11-05T07:01:38.078Z,17.35
2018-11-05T07:04:06.775Z,16.99
2018-11-05T07:06:35.268Z,16.82
2018-11-05T07:09:05.450Z,17.36
2018-11-05T07:11:34.048Z,17.80
2018-11-05T07:14:02.429Z,17.19
2018-11-05T07:16:30.902Z,17.19
2018-11-05T07:18:59.593Z,17.62
2018-11-05T07:21:27.863Z,17.21
2018-11-05T07:23:56.341Z,17.54
2018-11-05T07:26:24.848Z,17.60
2018-11-05T07:28:53.372Z,17.41
2018-11-05T07:31:21.854Z,17.65
2018-11-05T07:33:50.709Z,18.13
2018-11-05T07:36:19.648Z,17.80
2018-11-05T07:38:48.139Z,17.95
2018-11-05T07:41:16.652Z,18.31
2018-11-05T07:43:45.157Z,18.43
2018-11-05T07:46:13.659Z,18.77
2018-11-05T07:48:42.202Z,18.29
2018-11-05T07:51:10.671Z,18.41
2018-11-05T07:53:39.189Z,19.12
2018-11-05T07:56:08.085Z,18.94
2018-11-05T07:58:36.502Z,19.35
2018-11-05T08:01:05.760Z,19.48
2018-11-05T08:03:34.230Z,19.86
2018-11-05T08:06:02.682Z,20.65
2018-11-05T08:08:31.682Z,19.27
2018-11-05T08:11:00.446Z,18.91
2018-11-05T08:13:28.935Z,19.78
2018-11-05T08:15:57.455Z,20.94
2018-11-05T08:18:26.184Z,20.20
2018-11-05T08:20:54.664Z,19.41
2018-11-05T08:23:23.138Z,20.28
2018-11-05T08:25:51.658Z,19.61
2018-11-05T08:28:20.136Z,20.18
2018-11-05T08:30:48.652Z,20.05
2018-11-05T08:33:17.342Z,20.31
2018-11-05T08:35:45.793Z,19.76
2018-11-05T08:38:14.475Z,19.67
2018-11-05T08:40:42.994Z,20.18
2018-11-05T08:43:11.497Z,19.91
2018-11-05T08:45:39.984Z,20.79
2018-11-05T08:48:08.593Z,20.36
2018-11-05T08:50:37.101Z,20.50
2018-11-05T08:53:05.633Z,19.73
2018-11-05T08:55:34.124Z,20.38
2018-11-05T08:58:02.597Z,20.14
2018-11-05T09:00:36.245Z,20.35
2018-11-05T09:03:05.368Z,20.57
2018-11-05T09:05:33.900Z,20.11
2018-11-05T09:08:02.383Z,20.83
2018-11-05T09:10:31.047Z,20.83
2018-11-05T09:12:59.364Z,20.34
2018-11-05T09:15:27.841Z,19.88
2018-11-05T09:17:56.336Z,20.26
2018-11-05T09:20:24.946Z,20.60
2018-11-05T09:22:54.068Z,20.52
2018-11-05T09:25:22.583Z,21.72
2018-11-05T09:27:51.202Z,21.71
2018-11-05T09:30:21.045Z,21.63
2018-11-05T09:32:49.537Z,20.95
2018-11-05T09:35:18.524Z,21.73
2018-11-05T09:37:47.228Z,21.62
2018-11-05T09:40:17.880Z,20.71
2018-11-05T09:42:46.956Z,21.91
2018-11-05T09:45:21.924Z,21.55
2018-11-05T09:47:50.937Z,23.01
2018-11-05T09:50:20.007Z,22.99
2018-11-05T09:52:48.463Z,23.16
2018-11-05T09:55:17.276Z,22.36
2018-11-05T09:57:45.735Z,23.15
2018-11-05T10:00:17.360Z,22.43
2018-11-05T10:02:51.110Z,22.44
2018-11-05T10:05:19.617Z,23.47
2018-11-05T10:07:48.316Z,22.13
2018-11-05T10:10:17.685Z,22.37
2018-11-05T10:12:46.132Z,22.72
2018-11-05T10:15:15.870Z,22.64
2018-11-05T10:17:44.640Z,22.36
2018-11-05T10:20:21.055Z,21.82
2018-11-05T10:22:50.004Z,21.64
2018-11-05T10:25:30.087Z,22.13
2018-11-05T10:28:03.859Z,22.47
2018-11-05T10:30:33.241Z,21.71
2018-11-05T10:33:02.389Z,21.91
2018-11-05T10:35:36.323Z,22.11
2018-11-05T10:38:05.192Z,21.81
2018-11-05T10:40:33.764Z,21.19
2018-11-05T10:43:02.174Z,22.50
2018-11-05T10:45:30.660Z,21.93
2018-11-05T10:47:59.107Z,22.42
2018-11-05T10:50:27.590Z,22.36
2018-11-05T10:52:56.089Z,22.08
2018-11-05T10:58:07.533Z,22.84
2018-11-05T11:00:41.420Z,22.15
2018-11-05T11:03:18.832Z,22.44
2018-11-05T11:05:47.623Z,22.30
2018-11-05T11:08:16.598Z,22.68
2018-11-05T11:10:45.467Z,22.94
2018-11-05T11:13:14.292Z,22.86
2018-11-05T11:15:43.043Z,22.02
2018-11-05T11:18:11.512Z,22.46
2018-11-05T11:20:40.054Z,22.65
2018-11-05T11:23:08.502Z,22.72
2018-11-05T11:25:37.009Z,22.49
2018-11-05T11:28:06.111Z,22.00
2018-11-05T11:30:34.527Z,22.04
2018-11-05T11:33:02.988Z,21.95
2018-11-05T11:35:31.589Z,22.59
2018-11-05T11:38:00.076Z,22.53
2018-11-05T11:40:28.612Z,22.66
2018-11-05T11:42:57.051Z,22.62
2018-11-05T11:45:25.912Z,22.73
2018-11-05T11:47:54.735Z,23.45
2018-11-05T11:50:23.388Z,23.08
2018-11-05T11:52:52.356Z,22.01
2018-11-05T11:55:21.946Z,22.73
2018-11-05T11:57:50.466Z,23.09
2018-11-05T12:00:22.056Z,23.16
2018-11-05T12:02:51.446Z,22.70
2018-11-05T12:05:20.272Z,22.73
2018-11-05T12:07:49.669Z,23.57
2018-11-05T12:10:20.910Z,22.71
2018-11-05T12:12:49.414Z,22.43
2018-11-05T12:15:18.859Z,23.68
2018-11-05T12:17:48.392Z,22.92
2018-11-05T12:20:18.351Z,22.91
2018-11-05T12:22:47.565Z,24.19
2018-11-05T12:25:16.060Z,23.68
2018-11-05T12:27:44.816Z,24.70
2018-11-05T12:30:15.864Z,24.98
2018-11-05T12:32:45.431Z,23.15
2018-11-05T12:35:14.461Z,23.57
2018-11-05T12:37:44.826Z,23.33
2018-11-05T12:40:14.952Z,22.90
2018-11-05T12:42:44.888Z,23.56
2018-11-05T12:45:13.360Z,23.95
2018-11-05T12:47:41.867Z,22.96
2018-11-05T12:50:14.453Z,22.32
2018-11-05T12:52:43.729Z,23.08
2018-11-05T12:55:12.283Z,23.07
2018-11-05T12:57:41.153Z,23.02
2018-11-05T13:00:13.344Z,22.71
2018-11-05T13:02:41.800Z,23.15
2018-11-05T13:05:11.948Z,23.44
2018-11-05T13:07:40.754Z,23.66
2018-11-05T13:10:11.484Z,22.58
2018-11-05T13:12:40.401Z,23.83
2018-11-05T13:15:09.799Z,22.83
2018-11-05T13:17:39.111Z,23.45
2018-11-05T13:20:09.968Z,23.35
2018-11-05T13:22:38.805Z,23.90
2018-11-05T13:25:07.356Z,23.66
2018-11-05T13:27:35.859Z,24.70
2018-11-05T13:30:05.339Z,24.18
2018-11-05T13:32:34.199Z,22.62
2018-11-05T13:35:02.964Z,22.89
2018-11-05T13:37:32.139Z,23.49
2018-11-05T13:40:00.736Z,23.06
2018-11-05T13:42:29.288Z,23.19
2018-11-05T13:44:57.801Z,23.31
2018-11-05T13:47:26.963Z,24.23
2018-11-05T13:49:55.238Z,24.03
2018-11-05T13:52:23.568Z,22.71
2018-11-05T13:54:52.194Z,22.73
2018-11-05T13:57:20.567Z,22.15
2018-11-05T13:59:49.121Z,23.75
2018-11-05T14:02:17.983Z,23.39
2018-11-05T14:04:46.584Z,22.44
2018-11-05T14:07:15.486Z,22.56
2018-11-05T14:09:44.352Z,22.98
2018-11-05T14:12:13.271Z,22.64
2018-11-05T14:14:41.935Z,22.61
2018-11-05T14:17:10.708Z,23.46
2018-11-05T14:19:39.175Z,23.24
2018-11-05T14:22:07.895Z,22.86
2018-11-05T14:24:36.643Z,23.71
2018-11-05T14:27:05.534Z,22.87
2018-11-05T14:29:34.808Z,23.10
2018-11-05T14:32:02.600Z,24.04
2018-11-05T14:34:31.094Z,24.29
2018-11-05T14:36:59.595Z,23.28
2018-11-05T14:39:27.978Z,22.99
2018-11-05T14:41:56.511Z,23.52
2018-11-05T14:44:25.371Z,23.48
2018-11-05T14:46:53.844Z,22.76
2018-11-05T14:49:22.628Z,22.00
2018-11-05T14:51:52.086Z,22.15
2018-11-05T14:54:20.531Z,21.96
2018-11-05T14:56:49.236Z,22.21
2018-11-05T14:59:17.728Z,21.92
2018-11-05T15:01:46.555Z,20.85
2018-11-05T15:04:15.795Z,21.58
2018-11-05T15:06:44.424Z,21.51
2018-11-05T15:09:13.760Z,20.86
2018-11-05T15:11:42.393Z,21.06
2018-11-05T15:14:11.101Z,20.91
2018-11-05T15:16:39.589Z,21.18
2018-11-05T15:19:08.305Z,20.62
2018-11-05T15:21:36.817Z,20.87
2018-11-05T15:24:05.589Z,21.14
2018-11-05T15:26:34.167Z,21.01
2018-11-05T15:29:02.630Z,21.26
2018-11-05T15:31:31.104Z,21.04
2018-11-05T15:33:59.905Z,20.84
2018-11-05T15:36:28.313Z,20.48
2018-11-05T15:38:57.136Z,20.89
2018-11-05T15:41:26.206Z,20.67
2018-11-05T15:43:55.040Z,20.01
2018-11-05T15:46:23.551Z,20.25
2018-11-05T15:48:52.116Z,20.61
2018-11-05T15:51:21.104Z,20.36
2018-11-05T15:53:49.540Z,20.31
2018-11-05T15:56:17.961Z,20.50
2018-11-05T15:58:46.539Z,19.46
2018-11-05T16:01:15.095Z,20.45
2018-11-05T16:03:43.628Z,20.15
2018-11-05T16:06:12.152Z,20.83
2018-11-05T16:08:40.793Z,19.74
2018-11-05T16:11:09.514Z,19.62
2018-11-05T16:13:38.341Z,20.65
2018-11-05T16:16:07.033Z,20.20
2018-11-05T16:18:35.530Z,20.42
2018-11-05T16:21:03.964Z,20.16
2018-11-05T16:23:32.498Z,19.89
2018-11-05T16:26:01.348Z,19.88
2018-11-05T16:28:30.025Z,19.86
2018-11-05T16:30:58.517Z,19.41
2018-11-05T16:33:27.003Z,19.69
2018-11-05T16:35:55.448Z,19.53
2018-11-05T16:38:23.999Z,19.79
2018-11-05T16:40:52.580Z,19.45
2018-11-05T16:43:21.146Z,19.40
2018-11-05T16:45:49.765Z,19.78
2018-11-05T16:48:18.188Z,19.68
2018-11-05T16:50:46.711Z,19.81
2018-11-05T16:53:15.184Z,19.67
2018-11-05T16:55:43.683Z,19.43
2018-11-05T16:58:12.253Z,19.53
2018-11-05T17:00:41.311Z,19.26
2018-11-05T17:03:10.543Z,19.37
2018-11-05T17:05:39.193Z,19.16
2018-11-05T17:08:07.818Z,19.40
2018-11-05T17:10:37.296Z,19.18
2018-11-05T17:13:06.377Z,19.39
2018-11-05T17:15:34.821Z,19.54
2018-11-05T17:18:03.388Z,19.32
2018-11-05T17:20:31.873Z,18.83
2018-11-05T17:23:00.416Z,19.03
2018-11-05T17:25:28.994Z,19.02
2018-11-05T17:27:57.695Z,19.38
2018-11-05T17:30:26.772Z,19.35
2018-11-05T17:32:55.516Z,19.09
2018-11-05T17:35:24.007Z,19.39
2018-11-05T17:37:52.511Z,19.48
2018-11-05T17:40:22.412Z,18.89
2018-11-05T17:42:50.933Z,19.35
2018-11-05T17:45:20.264Z,19.14
2018-11-05T17:47:49.235Z,19.42
2018-11-05T17:50:19.473Z,18.97
2018-11-05T17:52:47.979Z,18.98
2018-11-05T17:55:16.556Z,19.46
2018-11-05T17:57:46.241Z,19.25
2018-11-05T18:00:16.674Z,19.11
2018-11-05T18:02:45.148Z,19.43
2018-11-05T18:05:14.456Z,19.24
2018-11-05T18:07:43.284Z,19.00
2018-11-05T18:10:11.802Z,19.15
2018-11-05T18:12:40.641Z,19.03
2018-11-05T18:15:10.743Z,19.10
2018-11-05T18:17:40.283Z,19.24
2018-11-05T18:20:10.276Z,18.91
2018-11-05T18:22:39.173Z,18.81
2018-11-05T18:25:10.315Z,18.66
2018-11-05T18:27:39.120Z,19.21
2018-11-05T18:30:08.706Z,19.22
2018-11-05T18:32:37.311Z,18.88
2018-11-05T18:35:07.606Z,18.94
2018-11-05T18:37:36.539Z,18.92
2018-11-05T18:40:07.275Z,19.13
2018-11-05T18:42:36.066Z,19.17
2018-11-05T18:45:04.639Z,19.13
2018-11-05T18:47:33.228Z,19.44
2018-11-05T18:50:01.741Z,19.14
2018-11-05T18:52:30.235Z,19.06
2018-11-05T18:54:58.716Z,18.79
2018-11-05T18:59:54.640Z,19.15
2018-11-05T19:02:29.451Z,18.75
2018-11-05T19:04:58.258Z,19.80
2018-11-05T19:07:26.907Z,19.69
2018-11-05T19:09:55.624Z,19.30
2018-11-05T19:12:24.123Z,19.28
2018-11-05T19:14:53.228Z,19.21
2018-11-05T19:17:21.922Z,19.15
2018-11-05T19:19:50.358Z,19.76
2018-11-05T19:22:19.231Z,19.06
2018-11-05T19:24:47.680Z,19.28
2018-11-05T19:27:16.395Z,19.35
2018-11-05T19:29:44.949Z,19.72
2018-11-05T19:32:13.436Z,19.53
2018-11-05T19:34:41.969Z,19.98
2018-11-05T19:37:11.136Z,19.61
2018-11-05T19:39:39.683Z,19.57
2018-11-05T19:42:08.470Z,19.86
2018-11-05T19:44:36.906Z,19.44
2018-11-05T19:47:05.473Z,19.48
2018-11-05T19:49:34.031Z,19.36
2018-11-05T19:52:02.855Z,19.95
2018-11-05T19:54:31.285Z,19.75
2018-11-05T19:56:59.733Z,19.61
2018-11-05T19:59:28.428Z,19.51
2018-11-05T20:01:57.205Z,19.67
2018-11-05T20:04:25.684Z,19.54
2018-11-05T20:06:54.245Z,19.30
2018-11-05T20:09:22.738Z,19.25
2018-11-05T20:11:51.209Z,19.54
2018-11-05T20:14:19.759Z,19.51
2018-11-05T20:16:48.316Z,19.53
2018-11-05T20:22:15.712Z,19.12
2018-11-05T20:24:44.149Z,19.56
2018-11-05T20:27:12.733Z,19.69
2018-11-05T20:29:41.556Z,19.28
2018-11-05T20:32:10.469Z,19.51
2018-11-05T20:34:38.859Z,19.49
2018-11-05T20:37:07.330Z,19.42
2018-11-05T20:39:35.795Z,19.07
2018-11-05T20:42:04.331Z,19.45
2018-11-05T20:44:32.867Z,19.36
2018-11-05T20:47:01.367Z,19.13
2018-11-05T20:49:44.614Z,19.07
2018-11-05T20:52:13.117Z,19.43
2018-11-05T20:54:41.596Z,19.25
2018-11-05T20:57:10.074Z,19.22
2018-11-05T20:59:38.680Z,19.36
2018-11-05T21:02:07.437Z,19.44
2018-11-05T21:04:35.936Z,19.24
2018-11-05T21:07:04.483Z,19.23
2018-11-05T21:09:32.953Z,18.81
2018-11-05T21:12:01.439Z,18.78
2018-11-05T21:14:30.030Z,18.80
2018-11-05T21:16:58.779Z,19.00
2018-11-05T21:19:27.448Z,19.16
2018-11-05T21:21:56.132Z,19.15
2018-11-05T21:24:25.810Z,19.15
2018-11-05T21:26:54.965Z,19.06
2018-11-05T21:29:23.641Z,18.91
2018-11-05T21:31:52.215Z,19.11
2018-11-05T21:34:20.721Z,19.32
2018-11-05T21:36:49.227Z,18.98
2018-11-05T21:39:17.697Z,18.81
2018-11-05T21:41:46.378Z,18.91
2018-11-05T21:44:15.439Z,18.78
2018-11-05T21:46:43.933Z,19.26
2018-11-05T21:49:12.875Z,18.64
2018-11-05T21:51:41.822Z,19.16
2018-11-05T21:54:10.387Z,18.90
2018-11-05T21:56:38.828Z,18.92
2018-11-05T21:59:07.891Z,19.08
2018-11-05T22:01:36.405Z,19.13
2018-11-05T22:04:05.425Z,19.73
2018-11-05T22:06:33.985Z,19.33
2018-11-05T22:09:02.478Z,19.43
2018-11-05T22:11:30.946Z,19.18
2018-11-05T22:13:59.415Z,19.44
2018-11-05T22:16:27.951Z,19.52
2018-11-05T22:18:56.779Z,19.60
2018-11-05T22:21:25.251Z,19.46
2018-11-05T22:23:53.955Z,19.43
2018-11-05T22:26:22.404Z,19.52
2018-11-05T22:28:50.891Z,19.13
2018-11-05T22:31:19.321Z,19.15
2018-11-05T22:33:48.079Z,19.16
2018-11-05T22:36:16.813Z,18.47
2018-11-05T22:38:45.323Z,18.49
2018-11-05T22:41:14.072Z,18.54
2018-11-05T22:43:42.592Z,18.74
2018-11-05T22:46:11.059Z,18.88
2018-11-05T22:48:39.637Z,18.91
2018-11-05T22:51:08.160Z,18.67
2018-11-05T22:53:36.687Z,18.95
2018-11-05T22:56:05.838Z,19.20
2018-11-05T22:58:34.300Z,19.28
2018-11-05T23:01:14.052Z,19.01
2018-11-05T23:03:42.505Z,19.08
2018-11-05T23:06:10.975Z,19.13
2018-11-05T23:08:39.439Z,18.72
2018-11-05T23:11:07.919Z,18.85
2018-11-05T23:13:36.408Z,18.97
2018-11-05T23:16:05.534Z,19.06
2018-11-05T23:18:34.007Z,18.93
2018-11-05T23:21:02.472Z,19.03
2018-11-05T23:23:31.003Z,18.86
2018-11-05T23:25:59.789Z,19.12
2018-11-05T23:28:28.259Z,18.83
2018-11-05T23:30:56.762Z,18.92
2018-11-05T23:33:25.205Z,18.48
2018-11-05T23:35:53.684Z,18.82
2018-11-05T23:38:22.162Z,18.87
2018-11-05T23:40:50.703Z,19.16
2018-11-05T23:43:19.146Z,18.55
2018-11-05T23:45:47.760Z,18.95
2018-11-05T23:48:16.282Z,19.52
2018-11-05T23:50:44.786Z,18.98
2018-11-05T23:53:13.427Z,18.70
2018-11-05T23:55:41.887Z,19.05
2018-11-05T23:58:10.460Z,19.39
